sensor_id;sensor_type;location;lat;lon;timestamp;temperature;humidity
20996;DHT22;10656;52.200;21.052;2023-05-10T00:05:18;5.00;96.10
20996;DHT22;10656;52.200;21.052;2023-05-10T00:25:27;5.00;95.20
20996;DHT22;10656;52.200;21.052;2023-05-10T00:50:51;4.60;98.70
20996;DHT22;10656;52.200;21.052;2023-05-10T01:10:47;4.50;97.00
20996;DHT22;10656;52.200;21.052;2023-05-10T01:41:29;4.20;97.90
20996;DHT22;10656;52.200;21.052;2023-05-10T02:12:05;3.70;99.90
20996;DHT22;10656;52.200;21.052;2023-05-10T02:42:36;3.40;99.90
20996;DHT22;10656;52.200;21.052;2023-05-10T02:46:53;3.40;99.90
20996;DHT22;10656;52.200;21.052;2023-05-10T03:17:23;3.80;97.90
20996;DHT22;10656;52.200;21.052;2023-05-10T03:43:04;4.90;91.50
20996;DHT22;10656;52.200;21.052;2023-05-10T04:08:33;5.80;89.30
20996;DHT22;10656;52.200;21.052;2023-05-10T04:15:59;6.10;87.90
20996;DHT22;10656;52.200;21.052;2023-05-10T04:27:58;6.90;84.20
20996;DHT22;10656;52.200;21.052;2023-05-10T04:48:18;8.00;82.10
20996;DHT22;10656;52.200;21.052;2023-05-10T05:38:29;10.90;72.30
20996;DHT22;10656;52.200;21.052;2023-05-10T06:03:48;12.10;69.70
20996;DHT22;10656;52.200;21.052;2023-05-10T06:55:10;14.40;49.60
20996;DHT22;10656;52.200;21.052;2023-05-10T07:25:13;15.50;43.90
20996;DHT22;10656;52.200;21.052;2023-05-10T08:00:59;16.20;38.90
20996;DHT22;10656;52.200;21.052;2023-05-10T08:36:30;16.90;36.60
20996;DHT22;10656;52.200;21.052;2023-05-10T09:01:50;17.30;37.40
20996;DHT22;10656;52.200;21.052;2023-05-10T09:22:16;17.00;36.30
20996;DHT22;10656;52.200;21.052;2023-05-10T09:47:07;16.80;36.10
20996;DHT22;10656;52.200;21.052;2023-05-10T10:07:29;16.70;37.00
20996;DHT22;10656;52.200;21.052;2023-05-10T10:37:48;16.30;35.70
20996;DHT22;10656;52.200;21.052;2023-05-10T11:08:43;16.60;35.70
20996;DHT22;10656;52.200;21.052;2023-05-10T11:34:06;16.90;36.20
20996;DHT22;10656;52.200;21.052;2023-05-10T11:59:25;17.20;36.40
20996;DHT22;10656;52.200;21.052;2023-05-10T12:59:57;18.20;36.00
20996;DHT22;10656;52.200;21.052;2023-05-10T14:06:13;20.50;35.00
20996;DHT22;10656;52.200;21.052;2023-05-10T14:46:18;21.60;33.50
20996;DHT22;10656;52.200;21.052;2023-05-10T15:11:44;22.40;34.20
20996;DHT22;10656;52.200;21.052;2023-05-10T15:31:48;21.30;33.40
20996;DHT22;10656;52.200;21.052;2023-05-10T16:02:28;21.80;32.30
20996;DHT22;10656;52.200;21.052;2023-05-10T16:27:40;16.90;34.20
20996;DHT22;10656;52.200;21.052;2023-05-10T16:53:03;16.20;33.60
20996;DHT22;10656;52.200;21.052;2023-05-10T17:13:12;15.80;35.30
20996;DHT22;10656;52.200;21.052;2023-05-10T17:43:49;15.20;35.70
20996;DHT22;10656;52.200;21.052;2023-05-10T18:14:17;14.40;36.50
20996;DHT22;10656;52.200;21.052;2023-05-10T18:39:17;13.70;37.50
20996;DHT22;10656;52.200;21.052;2023-05-10T19:04:55;13.00;38.30
20996;DHT22;10656;52.200;21.052;2023-05-10T19:40:24;12.30;39.70
